createdAt,value
2023-02-01T00:02:09.173Z,79.43
2023-02-01T00:04:39.109Z,93.28
2023-02-01T00:07:09.412Z,86.13
2023-02-01T00:09:39.442Z,91.80
2023-02-01T00:12:09.850Z,87.25
2023-02-01T00:14:41.451Z,102.63
2023-02-01T00:17:11.337Z,99.18
2023-02-01T00:19:40.981Z,98.53
2023-02-01T00:22:10.707Z,100.30
2023-02-01T00:24:40.879Z,119.53
2023-02-01T00:27:10.649Z,120.32
2023-02-01T00:29:40.679Z,105.03
2023-02-01T00:32:10.457Z,97.25
2023-02-01T00:34:40.535Z,89.30
2023-02-01T00:37:10.461Z,94.75
2023-02-01T00:39:40.091Z,96.47
2023-02-01T00:42:09.929Z,100.72
2023-02-01T00:44:39.975Z,107.65
2023-02-01T00:47:09.903Z,103.18
2023-02-01T00:49:39.915Z,104.07
2023-02-01T00:52:09.922Z,96.03
2023-02-01T00:54:40.514Z,101.65
2023-02-01T00:57:10.383Z,97.50
2023-02-01T00:59:40.368Z,92.95
2023-02-01T01:02:10.248Z,97.55
2023-02-01T01:04:40.422Z,103.45
2023-02-01T01:07:10.352Z,98.63
2023-02-01T01:09:40.182Z,90.13
2023-02-01T01:12:10.068Z,98.30
2023-02-01T01:14:40.722Z,92.72
2023-02-01T01:17:10.443Z,102.43
2023-02-01T01:19:40.364Z,97.30
2023-02-01T01:22:10.226Z,106.32
2023-02-01T01:24:39.986Z,103.00
2023-02-01T01:27:09.967Z,108.05
2023-02-01T01:29:40.278Z,95.97
2023-02-01T01:32:10.013Z,100.43
2023-02-01T01:34:40.060Z,98.07
2023-02-01T01:37:10.059Z,90.40
2023-02-01T01:39:39.861Z,83.30
2023-02-01T01:42:12.247Z,85.13
2023-02-01T01:45:06.688Z,84.90
2023-02-01T01:47:47.615Z,88.95
2023-02-01T01:50:21.342Z,88.60
2023-02-01T01:52:54.057Z,88.32
2023-02-01T01:55:26.487Z,74.82
2023-02-01T01:58:19.438Z,80.10
2023-02-01T02:00:50.563Z,81.53
2023-02-01T02:03:26.752Z,82.97
2023-02-01T02:06:00.702Z,78.15
2023-02-01T02:08:30.748Z,87.22
2023-02-01T02:11:03.678Z,79.18
2023-02-01T02:13:40.164Z,74.43
2023-02-01T02:16:37.138Z,92.22
2023-02-01T02:19:46.138Z,77.00
2023-02-01T02:22:44.289Z,82.72
2023-02-01T02:28:38.727Z,75.70
2023-02-01T02:31:37.957Z,82.40
2023-02-01T02:34:35.101Z,73.13
2023-02-01T02:37:18.902Z,89.72
2023-02-01T02:40:27.896Z,81.53
2023-02-01T02:43:43.768Z,83.07
2023-02-01T02:46:45.704Z,79.47
2023-02-01T02:49:23.755Z,86.22
2023-02-01T02:52:22.438Z,81.75
2023-02-01T02:54:54.641Z,82.95
2023-02-01T02:57:55.083Z,76.43
2023-02-01T03:00:51.127Z,79.25
2023-02-01T03:03:40.681Z,83.70
2023-02-01T03:06:18.889Z,80.22
2023-02-01T03:08:49.058Z,82.97
2023-02-01T03:11:19.267Z,81.35
2023-02-01T03:14:00.819Z,80.00
2023-02-01T03:16:54.569Z,77.10
2023-02-01T03:19:38.622Z,79.80
2023-02-01T03:22:17.331Z,116.13
2023-02-01T03:24:57.959Z,87.18
2023-02-01T03:27:56.570Z,85.03
2023-02-01T03:30:37.777Z,80.22
2023-02-01T03:33:16.523Z,82.43
2023-02-01T03:36:16.956Z,76.60
2023-02-01T03:39:24.043Z,74.40
2023-02-01T03:42:03.856Z,72.07
2023-02-01T03:44:59.346Z,74.53
2023-02-01T03:47:35.356Z,80.05
2023-02-01T03:50:14.719Z,79.57
2023-02-01T03:52:59.879Z,93.70
2023-02-01T03:55:31.620Z,74.53
2023-02-01T03:58:10.976Z,74.50
2023-02-01T04:00:41.296Z,75.88
2023-02-01T04:03:11.707Z,81.93
2023-02-01T04:05:41.497Z,81.65
2023-02-01T04:08:11.330Z,75.63
2023-02-01T04:10:41.167Z,71.80
2023-02-01T04:13:11.076Z,81.25
2023-02-01T04:15:40.911Z,72.30
2023-02-01T04:18:11.707Z,76.50
2023-02-01T04:20:41.475Z,78.63
2023-02-01T04:23:11.260Z,66.22
2023-02-01T04:25:41.101Z,74.05
2023-02-01T04:28:11.758Z,64.82
2023-02-01T04:30:41.874Z,58.80
2023-02-01T04:33:11.757Z,67.75
2023-02-01T04:35:41.571Z,57.97
2023-02-01T04:38:11.436Z,57.90
2023-02-01T04:40:41.423Z,71.38
2023-02-01T04:43:11.289Z,56.17
2023-02-01T04:45:41.198Z,49.97
2023-02-01T04:48:10.965Z,54.90
2023-02-01T04:50:40.833Z,61.03
2023-02-01T04:53:10.763Z,54.22
2023-02-01T04:55:40.587Z,49.45
2023-02-01T04:58:10.443Z,53.83
2023-02-01T05:00:41.190Z,47.95
2023-02-01T05:03:11.012Z,47.80
2023-02-01T05:05:40.812Z,47.20
2023-02-01T05:08:10.708Z,47.78
2023-02-01T05:10:40.695Z,46.55
2023-02-01T05:13:32.959Z,47.50
2023-02-01T05:16:02.758Z,48.15
2023-02-01T05:18:33.237Z,45.75
2023-02-01T05:21:03.223Z,49.05
2023-02-01T05:23:32.980Z,50.55
2023-02-01T05:26:05.879Z,50.35
2023-02-01T05:28:35.583Z,47.47
2023-02-01T05:31:12.566Z,45.00
2023-02-01T05:33:42.494Z,61.78
2023-02-01T05:36:12.277Z,44.67
2023-02-01T05:38:41.994Z,47.25
2023-02-01T05:41:11.804Z,48.78
2023-02-01T05:43:41.490Z,53.40
2023-02-01T05:46:13.498Z,51.15
2023-02-01T05:48:44.120Z,53.90
2023-02-01T05:51:14.596Z,55.10
2023-02-01T05:53:44.412Z,59.45
2023-02-01T05:56:14.251Z,48.03
2023-02-01T05:58:44.292Z,50.70
2023-02-01T06:01:14.247Z,48.90
2023-02-01T06:03:43.983Z,49.20
2023-02-01T06:06:13.792Z,44.50
2023-02-01T06:08:43.642Z,49.67
2023-02-01T06:11:17.434Z,49.85
2023-02-01T06:13:52.977Z,48.22
2023-02-01T06:16:22.986Z,53.85
2023-02-01T06:18:53.852Z,43.17
2023-02-01T06:21:26.909Z,42.53
2023-02-01T06:23:57.751Z,42.70
2023-02-01T06:26:28.037Z,43.75
2023-02-01T06:28:58.491Z,51.92
2023-02-01T06:31:28.886Z,41.60
2023-02-01T06:33:58.709Z,43.05
2023-02-01T06:36:28.719Z,47.38
2023-02-01T06:38:59.760Z,42.50
2023-02-01T06:41:29.857Z,46.17
2023-02-01T06:43:59.866Z,46.85
2023-02-01T06:46:30.027Z,45.30
2023-02-01T06:49:02.445Z,50.22
2023-02-01T06:51:32.892Z,49.17
2023-02-01T06:54:03.491Z,43.05
2023-02-01T06:56:34.276Z,42.10
2023-02-01T06:59:07.977Z,51.45
2023-02-01T07:01:38.483Z,47.85
2023-02-01T07:04:08.563Z,51.38
2023-02-01T07:06:38.399Z,43.53
2023-02-01T07:09:08.384Z,47.15
2023-02-01T07:11:40.299Z,47.72
2023-02-01T07:14:10.198Z,45.67
2023-02-01T07:16:40.582Z,46.53
2023-02-01T07:19:11.037Z,42.30
2023-02-01T07:21:41.046Z,42.80
2023-02-01T07:24:10.898Z,43.78
2023-02-01T07:26:40.572Z,38.70
2023-02-01T07:29:10.395Z,43.92
2023-02-01T07:31:40.440Z,36.10
2023-02-01T07:34:10.302Z,47.17
2023-02-01T07:36:40.278Z,40.67
2023-02-01T07:39:09.959Z,41.60
2023-02-01T07:41:39.827Z,41.55
2023-02-01T07:44:09.567Z,40.10
2023-02-01T07:46:39.395Z,44.08
2023-02-01T07:49:09.700Z,55.90
2023-02-01T07:51:39.824Z,39.75
2023-02-01T07:54:09.614Z,35.65
2023-02-01T07:56:39.469Z,39.10
2023-02-01T07:59:10.460Z,49.30
2023-02-01T08:01:40.456Z,39.35
2023-02-01T08:04:12.372Z,43.78
2023-02-01T08:06:43.250Z,37.65
2023-02-01T08:09:14.017Z,38.95
2023-02-01T08:11:44.297Z,46.55
2023-02-01T08:14:14.210Z,39.67
2023-02-01T08:16:44.162Z,39.88
2023-02-01T08:19:14.568Z,39.28
2023-02-01T08:21:44.298Z,52.58
2023-02-01T08:24:14.252Z,41.40
2023-02-01T08:26:44.166Z,41.83
2023-02-01T08:29:15.962Z,38.70
2023-02-01T08:31:46.287Z,39.17
2023-02-01T08:34:16.122Z,38.90
2023-02-01T08:36:46.030Z,37.90
2023-02-01T08:39:15.998Z,41.60
2023-02-01T08:42:05.530Z,36.20
2023-02-01T08:44:35.433Z,38.35
2023-02-01T08:47:06.441Z,37.80
2023-02-01T08:49:36.342Z,43.72
2023-02-01T08:52:14.481Z,37.50
2023-02-01T08:54:45.425Z,29.80
2023-02-01T08:57:16.052Z,32.20
2023-02-01T08:59:47.007Z,32.42
2023-02-01T09:02:21.170Z,33.67
2023-02-01T09:04:51.130Z,34.78
2023-02-01T09:07:21.709Z,37.05
2023-02-01T09:09:51.767Z,36.35
2023-02-01T09:12:21.764Z,33.83
2023-02-01T09:14:51.564Z,41.55
2023-02-01T09:17:21.515Z,46.78
2023-02-01T09:19:52.017Z,36.08
2023-02-01T09:22:21.877Z,34.35
2023-02-01T09:24:53.102Z,37.95
2023-02-01T09:27:23.703Z,43.45
2023-02-01T09:29:55.213Z,41.92
2023-02-01T09:32:26.542Z,39.60
2023-02-01T09:34:56.593Z,38.17
2023-02-01T09:37:26.421Z,44.67
2023-02-01T09:39:56.385Z,33.95
2023-02-01T09:42:53.822Z,37.72
2023-02-01T09:46:04.853Z,40.55
2023-02-01T09:48:42.594Z,37.55
2023-02-01T09:51:20.556Z,36.17
2023-02-01T09:54:00.339Z,45.58
2023-02-01T09:56:55.188Z,32.65
2023-02-01T09:59:48.954Z,42.25
2023-02-01T10:02:27.992Z,39.95
2023-02-01T10:05:01.120Z,41.53
2023-02-01T10:08:09.948Z,38.53
2023-02-01T10:10:46.980Z,42.20
2023-02-01T10:13:39.660Z,38.53
2023-02-01T10:16:34.289Z,41.33
2023-02-01T10:19:27.463Z,36.33
2023-02-01T10:22:05.725Z,43.50
2023-02-01T10:24:45.894Z,43.97
2023-02-01T10:27:32.095Z,41.85
2023-02-01T10:30:07.050Z,38.92
2023-02-01T10:32:38.523Z,42.33
2023-02-01T10:35:21.254Z,40.20
2023-02-01T10:37:51.132Z,42.58
2023-02-01T10:40:26.511Z,42.80
2023-02-01T10:43:02.820Z,42.55
2023-02-01T10:45:35.531Z,47.95
2023-02-01T10:48:06.878Z,36.47
2023-02-01T10:50:43.773Z,48.13
2023-02-01T10:53:52.045Z,38.95
2023-02-01T10:56:29.476Z,39.33
2023-02-01T10:59:09.075Z,38.67
2023-02-01T11:01:43.087Z,41.03
2023-02-01T11:04:22.782Z,39.10
2023-02-01T11:07:10.270Z,39.13
2023-02-01T11:09:43.725Z,37.95
2023-02-01T11:12:37.820Z,36.42
2023-02-01T11:15:27.418Z,36.35
2023-02-01T11:18:01.745Z,39.30
2023-02-01T11:20:52.130Z,39.03
2023-02-01T11:23:27.303Z,44.10
2023-02-01T11:26:00.170Z,45.22
2023-02-01T11:28:37.536Z,47.97
2023-02-01T11:31:13.397Z,44.53
2023-02-01T11:33:52.726Z,40.53
2023-02-01T11:36:29.279Z,45.58
2023-02-01T11:39:35.235Z,44.63
2023-02-01T11:42:16.363Z,43.67
2023-02-01T11:44:49.589Z,50.83
2023-02-01T11:47:43.147Z,46.97
2023-02-01T11:50:42.864Z,47.05
2023-02-01T11:53:38.524Z,52.65
2023-02-01T11:56:30.709Z,73.53
2023-02-01T11:59:43.071Z,60.15
2023-02-01T12:02:44.107Z,54.67
2023-02-01T12:05:53.949Z,61.08
2023-02-01T12:09:02.976Z,67.50
2023-02-01T12:12:12.050Z,59.72
2023-02-01T12:15:02.326Z,57.10
2023-02-01T12:18:02.680Z,59.13
2023-02-01T12:21:11.708Z,58.08
2023-02-01T12:24:21.373Z,65.75
2023-02-01T12:27:13.760Z,61.63
2023-02-01T12:30:04.732Z,57.30
2023-02-01T12:33:09.569Z,50.20
2023-02-01T12:36:11.143Z,64.13
2023-02-01T12:39:14.712Z,63.92
2023-02-01T12:41:58.727Z,62.40
2023-02-01T12:44:40.329Z,77.90
2023-02-01T12:47:32.011Z,76.30
2023-02-01T12:50:25.355Z,66.20
2023-02-01T12:52:58.236Z,78.53
2023-02-01T12:55:38.616Z,73.53
2023-02-01T12:58:26.138Z,80.05
2023-02-01T13:01:06.243Z,66.45
2023-02-01T13:04:02.723Z,71.13
2023-02-01T13:06:49.954Z,63.05
2023-02-01T13:09:48.944Z,66.33
2023-02-01T13:12:44.451Z,71.68
2023-02-01T13:15:24.898Z,66.35
2023-02-01T13:17:56.906Z,71.60
2023-02-01T13:20:36.134Z,75.57
2023-02-01T13:23:28.996Z,72.05
2023-02-01T13:26:00.354Z,64.53
2023-02-01T13:28:51.444Z,68.13
2023-02-01T13:32:00.482Z,66.18
2023-02-01T13:35:09.385Z,77.15
2023-02-01T13:38:08.837Z,81.65
2023-02-01T13:40:51.830Z,78.10
2023-02-01T13:43:32.072Z,77.60
2023-02-01T13:46:08.730Z,71.28
2023-02-01T13:48:57.650Z,67.95
2023-02-01T13:51:49.275Z,69.75
2023-02-01T13:54:42.749Z,68.43
2023-02-01T13:57:41.102Z,68.88
2023-02-01T14:00:38.722Z,69.30
2023-02-01T14:03:18.486Z,63.92
2023-02-01T14:06:04.537Z,73.65
2023-02-01T14:08:44.003Z,83.03
2023-02-01T14:11:45.271Z,70.35
2023-02-01T14:14:42.381Z,60.20
2023-02-01T14:17:37.829Z,76.77
2023-02-01T14:20:42.398Z,70.93
2023-02-01T14:23:22.136Z,83.47
2023-02-01T14:26:05.466Z,84.10
2023-02-01T14:28:38.189Z,75.13
2023-02-01T14:31:38.116Z,82.38
2023-02-01T14:34:17.954Z,79.43
2023-02-01T14:37:11.546Z,74.03
2023-02-01T14:40:13.043Z,78.70
2023-02-01T14:42:51.881Z,65.95
2023-02-01T14:45:56.333Z,73.80
2023-02-01T14:48:47.999Z,79.55
2023-02-01T14:51:20.677Z,78.20
2023-02-01T14:53:50.898Z,69.32
2023-02-01T14:56:24.084Z,74.80
2023-02-01T14:59:11.403Z,74.32
2023-02-01T15:01:49.410Z,71.10
2023-02-01T15:04:24.299Z,65.60
2023-02-01T15:07:01.093Z,72.22
2023-02-01T15:09:39.249Z,63.05
2023-02-01T15:15:23.809Z,83.93
2023-02-01T15:18:02.654Z,74.53
2023-02-01T15:20:34.607Z,70.32
2023-02-01T15:23:17.960Z,66.82
2023-02-01T15:25:51.826Z,77.38
2023-02-01T15:28:23.104Z,75.30
2023-02-01T15:31:03.548Z,74.22
2023-02-01T15:33:34.614Z,73.50
2023-02-01T15:36:12.618Z,77.28
2023-02-01T15:38:44.542Z,64.40
2023-02-01T15:41:20.675Z,65.07
2023-02-01T15:44:21.349Z,68.30
2023-02-01T15:46:53.752Z,66.00
2023-02-01T15:49:35.422Z,78.53
2023-02-01T15:52:05.985Z,65.65
2023-02-01T15:54:47.166Z,76.50
2023-02-01T15:57:33.048Z,75.13
2023-02-01T16:00:10.533Z,73.88
2023-02-01T16:02:46.931Z,93.90
2023-02-01T16:05:38.517Z,108.20
2023-02-01T16:08:29.150Z,104.78
2023-02-01T16:11:17.651Z,109.70
2023-02-01T16:13:47.428Z,85.70
2023-02-01T16:16:17.167Z,86.53
2023-02-01T16:18:47.770Z,112.78
2023-02-01T16:21:17.495Z,103.93
2023-02-01T16:23:51.073Z,118.22
2023-02-01T16:26:21.475Z,154.40
2023-02-01T16:28:51.627Z,167.93
2023-02-01T16:31:28.783Z,154.02
2023-02-01T16:33:59.162Z,134.57
2023-02-01T16:36:30.588Z,134.23
2023-02-01T16:39:00.679Z,112.93
2023-02-01T16:41:30.918Z,104.57
2023-02-01T16:44:00.849Z,118.32
2023-02-01T16:46:38.602Z,113.43
2023-02-01T16:49:08.500Z,117.90
2023-02-01T16:51:39.032Z,96.93
2023-02-01T16:54:09.611Z,119.75
2023-02-01T16:56:41.898Z,104.53
2023-02-01T16:59:11.997Z,106.82
2023-02-01T17:01:44.607Z,104.32
2023-02-01T17:04:14.409Z,111.40
2023-02-01T17:06:44.483Z,109.97
2023-02-01T17:09:14.437Z,100.78
2023-02-01T17:11:44.111Z,118.38
2023-02-01T17:14:24.217Z,108.30
2023-02-01T17:16:54.381Z,92.05
2023-02-01T17:19:26.233Z,109.75
2023-02-01T17:21:58.556Z,113.38
2023-02-01T17:24:47.643Z,96.40
2023-02-01T17:27:19.845Z,101.72
2023-02-01T17:29:50.956Z,88.47
2023-02-01T17:32:28.169Z,99.80
2023-02-01T17:37:33.653Z,90.03
2023-02-01T17:40:04.188Z,96.13
2023-02-01T17:42:34.271Z,106.88
2023-02-01T17:45:18.268Z,110.93
2023-02-01T17:47:49.579Z,103.03
2023-02-01T17:50:19.662Z,113.32
2023-02-01T17:52:49.490Z,80.20
2023-02-01T17:55:24.489Z,97.78
2023-02-01T17:57:54.663Z,91.18
2023-02-01T18:00:24.595Z,85.80
2023-02-01T18:02:54.441Z,103.82
2023-02-01T18:05:29.330Z,111.32
2023-02-01T18:07:59.246Z,80.55
2023-02-01T18:10:29.127Z,89.07
2023-02-01T18:12:59.285Z,82.30
2023-02-01T18:15:30.002Z,85.40
2023-02-01T18:18:00.630Z,88.03
2023-02-01T18:20:30.971Z,85.63
2023-02-01T18:23:00.906Z,86.70
2023-02-01T18:25:38.997Z,85.40
2023-02-01T18:28:08.806Z,79.25
2023-02-01T18:30:38.998Z,75.82
2023-02-01T18:33:12.771Z,102.70
2023-02-01T18:35:43.177Z,96.85
2023-02-01T18:38:13.723Z,93.70
2023-02-01T18:40:54.294Z,94.18
2023-02-01T18:43:24.624Z,121.32
2023-02-01T18:45:54.475Z,108.50
2023-02-01T18:48:24.812Z,116.93
2023-02-01T18:50:59.016Z,92.32
2023-02-01T18:53:31.890Z,97.00
2023-02-01T18:56:02.315Z,86.90
2023-02-01T18:58:33.729Z,88.38
2023-02-01T19:01:11.779Z,95.95
2023-02-01T19:03:45.828Z,93.93
2023-02-01T19:06:18.279Z,92.70
2023-02-01T19:08:49.031Z,86.47
2023-02-01T19:11:18.848Z,92.13
2023-02-01T19:13:48.670Z,88.20
2023-02-01T19:16:18.596Z,86.00
2023-02-01T19:18:54.154Z,94.00
2023-02-01T19:21:23.972Z,88.35
2023-02-01T19:23:54.067Z,92.72
2023-02-01T19:26:24.226Z,94.32
2023-02-01T19:28:54.477Z,93.30
2023-02-01T19:31:24.428Z,104.60
2023-02-01T19:33:55.245Z,102.03
2023-02-01T19:36:25.297Z,103.10
2023-02-01T19:38:55.607Z,96.55
2023-02-01T19:41:25.570Z,103.22
2023-02-01T19:43:55.600Z,96.65
2023-02-01T19:46:25.328Z,96.20
2023-02-01T19:48:56.184Z,91.05
2023-02-01T19:51:26.151Z,97.60
2023-02-01T19:53:56.194Z,98.45
2023-02-01T19:56:26.095Z,89.10
2023-02-01T19:58:57.328Z,92.57
2023-02-01T20:01:27.290Z,85.00
2023-02-01T20:04:03.399Z,95.68
2023-02-01T20:06:39.123Z,92.28
2023-02-01T20:09:09.149Z,89.45
2023-02-01T20:11:38.999Z,95.05
2023-02-01T20:14:09.282Z,91.32
2023-02-01T20:16:39.322Z,102.00
2023-02-01T20:19:11.059Z,100.72
2023-02-01T20:21:43.858Z,94.28
2023-02-01T20:24:17.503Z,94.00
2023-02-01T20:26:48.986Z,98.75
2023-02-01T20:29:20.618Z,89.65
2023-02-01T20:31:50.621Z,86.53
2023-02-01T20:34:22.275Z,91.60
2023-02-01T20:36:52.157Z,99.85
2023-02-01T20:39:22.319Z,103.53
2023-02-01T20:41:52.242Z,87.95
2023-02-01T20:44:22.224Z,94.28
2023-02-01T20:46:51.972Z,87.43
2023-02-01T20:49:21.720Z,93.38
2023-02-01T20:51:51.623Z,89.18
2023-02-01T20:54:21.477Z,97.95
2023-02-01T20:56:51.680Z,93.10
2023-02-01T20:59:21.648Z,87.82
2023-02-01T21:01:54.860Z,87.35
2023-02-01T21:04:29.081Z,87.45
2023-02-01T21:07:00.539Z,89.95
2023-02-01T21:09:31.837Z,87.32
2023-02-01T21:12:01.747Z,88.32
2023-02-01T21:14:31.669Z,93.00
2023-02-01T21:17:01.413Z,86.70
2023-02-01T21:19:31.159Z,90.05
2023-02-01T21:22:00.760Z,85.20
2023-02-01T21:24:30.491Z,87.90
2023-02-01T21:27:00.534Z,88.38
2023-02-01T21:29:30.152Z,87.80
2023-02-01T21:32:00.322Z,92.25
2023-02-01T21:34:30.749Z,92.10
2023-02-01T21:37:00.550Z,90.88
2023-02-01T21:39:31.035Z,86.30
2023-02-01T21:42:20.369Z,86.68
2023-02-01T21:44:51.211Z,86.40
2023-02-01T21:47:26.710Z,89.20
2023-02-01T21:49:57.541Z,87.85
2023-02-01T21:52:27.760Z,88.55
2023-02-01T21:55:01.188Z,87.88
2023-02-01T21:57:32.016Z,92.07
2023-02-01T22:00:02.413Z,88.03
2023-02-01T22:02:32.374Z,82.13
2023-02-01T22:05:02.238Z,85.13
2023-02-01T22:07:31.925Z,89.10
2023-02-01T22:10:02.830Z,84.05
2023-02-01T22:12:32.566Z,87.88
2023-02-01T22:15:02.513Z,95.07
2023-02-01T22:17:33.447Z,89.60
2023-02-01T22:20:03.314Z,91.90
2023-02-01T22:22:33.190Z,87.88
2023-02-01T22:25:03.077Z,85.50
2023-02-01T22:28:30.884Z,80.55
2023-02-01T22:30:24.459Z,91.78
2023-02-01T22:32:54.502Z,100.40
2023-02-01T22:35:25.365Z,91.07
2023-02-01T22:37:55.606Z,86.95
2023-02-01T22:40:25.591Z,87.55
2023-02-01T22:42:55.380Z,85.57
2023-02-01T22:45:25.814Z,85.55
2023-02-01T22:47:55.804Z,89.20
2023-02-01T22:50:25.798Z,92.35
2023-02-01T22:52:55.796Z,87.32
2023-02-01T22:55:26.052Z,90.85
2023-02-01T22:57:56.014Z,86.47
2023-02-01T23:00:26.602Z,93.88
2023-02-01T23:02:56.473Z,88.22
2023-02-01T23:05:26.557Z,89.75
2023-02-01T23:07:56.360Z,85.05
2023-02-01T23:10:26.223Z,78.32
2023-02-01T23:12:56.227Z,87.32
2023-02-01T23:15:26.160Z,83.55
2023-02-01T23:17:56.011Z,88.30
2023-02-01T23:20:26.105Z,89.30
2023-02-01T23:22:55.928Z,84.43
2023-02-01T23:25:25.832Z,87.60
2023-02-01T23:27:55.929Z,89.70
2023-02-01T23:30:25.719Z,94.55
2023-02-01T23:32:55.552Z,84.93
2023-02-01T23:35:25.775Z,93.50
2023-02-01T23:37:55.821Z,88.25
2023-02-01T23:40:25.629Z,88.65
2023-02-01T23:43:15.017Z,87.40
2023-02-01T23:45:45.069Z,86.90
2023-02-01T23:48:14.950Z,89.18
2023-02-01T23:50:44.755Z,87.00
2023-02-01T23:53:14.463Z,97.85
2023-02-01T23:55:44.320Z,84.05
2023-02-01T23:58:14.145Z,100.40
